createdAt,value
2023-05-22T00:00:55.208Z,61.23
2023-05-22T00:05:58.995Z,61.84
2023-05-22T00:11:00.680Z,61.74
2023-05-22T00:16:03.116Z,62.41
2023-05-22T00:21:04.940Z,60.88
2023-05-22T00:26:06.471Z,61.08
2023-05-22T00:31:08.223Z,60.49
2023-05-22T00:36:09.918Z,61.86
2023-05-22T00:41:11.477Z,61.80
2023-05-22T00:46:13.095Z,63.84
2023-05-22T00:51:15.468Z,62.91
2023-05-22T00:56:17.778Z,62.15
2023-05-22T01:01:19.871Z,62.81
2023-05-22T01:06:24.383Z,62.64
2023-05-22T01:11:29.894Z,62.49
2023-05-22T01:16:46.897Z,62.61
2023-05-22T01:22:25.548Z,63.29
2023-05-22T01:27:58.429Z,63.17
2023-05-22T01:33:00.955Z,63.28
2023-05-22T01:38:03.689Z,63.46
2023-05-22T01:43:05.427Z,64.01
2023-05-22T01:48:07.514Z,63.42
2023-05-22T01:53:15.516Z,63.44
2023-05-22T01:58:29.332Z,64.48
2023-05-22T02:03:33.654Z,65.05
2023-05-22T02:08:40.487Z,64.51
2023-05-22T02:13:43.008Z,65.03
2023-05-22T02:18:45.509Z,64.62
2023-05-22T02:23:47.399Z,65.41
2023-05-22T02:28:48.938Z,64.99
2023-05-22T02:33:50.509Z,65.18
2023-05-22T02:38:52.769Z,66.15
2023-05-22T02:43:54.361Z,67.04
2023-05-22T02:48:55.939Z,67.48
2023-05-22T02:53:57.484Z,67.63
2023-05-22T02:58:59.270Z,66.83
2023-05-22T03:04:00.808Z,67.84
2023-05-22T03:09:04.228Z,66.00
2023-05-22T03:14:05.780Z,63.73
2023-05-22T03:19:10.606Z,61.19
2023-05-22T03:24:14.782Z,58.01
2023-05-22T03:29:16.395Z,54.20
2023-05-22T03:34:18.004Z,50.42
2023-05-22T03:39:19.663Z,49.74
2023-05-22T03:44:21.258Z,52.54
2023-05-22T03:49:22.845Z,56.23
2023-05-22T03:54:24.538Z,59.10
2023-05-22T03:59:26.119Z,60.73
2023-05-22T04:04:30.490Z,61.13
2023-05-22T04:09:32.385Z,62.88
2023-05-22T04:14:34.008Z,62.88
2023-05-22T04:19:35.558Z,63.18
2023-05-22T04:24:39.872Z,62.20
2023-05-22T04:29:41.692Z,61.56
2023-05-22T04:34:44.931Z,60.75
2023-05-22T04:39:47.112Z,60.49
2023-05-22T04:44:48.665Z,60.29
2023-05-22T04:49:51.477Z,60.22
2023-05-22T04:54:53.082Z,59.86
2023-05-22T04:59:54.694Z,59.91
2023-05-22T05:04:56.245Z,59.22
2023-05-22T05:09:57.754Z,59.37
2023-05-22T05:14:59.349Z,59.91
2023-05-22T05:20:01.002Z,60.29
2023-05-22T05:25:03.996Z,59.61
2023-05-22T05:30:06.825Z,58.87
2023-05-22T05:35:08.627Z,58.45
2023-05-22T05:40:13.400Z,57.29
2023-05-22T05:45:15.135Z,56.99
2023-05-22T05:50:17.283Z,56.08
2023-05-22T05:55:18.818Z,56.32
2023-05-22T06:00:22.829Z,55.99
2023-05-22T06:05:24.470Z,56.20
2023-05-22T06:10:26.435Z,54.70
2023-05-22T06:15:27.963Z,54.39
2023-05-22T06:20:29.663Z,54.56
2023-05-22T06:25:31.312Z,52.97
2023-05-22T06:30:40.076Z,52.04
2023-05-22T06:35:42.376Z,52.34
2023-05-22T06:40:43.964Z,53.58
2023-05-22T06:45:45.569Z,53.50
2023-05-22T06:50:47.752Z,52.90
2023-05-22T06:55:49.308Z,52.51
2023-05-22T07:00:52.405Z,52.20
2023-05-22T07:05:56.840Z,52.26
2023-05-22T07:10:58.794Z,52.41
2023-05-22T07:16:00.538Z,53.15
2023-05-22T07:21:03.039Z,52.96
2023-05-22T07:26:04.751Z,51.88
2023-05-22T07:31:06.758Z,51.11
2023-05-22T07:36:08.480Z,52.10
2023-05-22T07:41:09.990Z,51.79
2023-05-22T07:46:14.469Z,52.43
2023-05-22T07:51:16.190Z,51.26
2023-05-22T07:56:18.075Z,51.64
2023-05-22T08:01:19.805Z,51.21
2023-05-22T08:06:23.778Z,50.31
2023-05-22T08:11:28.840Z,50.66
2023-05-22T08:16:33.356Z,49.24
2023-05-22T08:21:35.948Z,47.70
2023-05-22T08:26:41.347Z,45.67
2023-05-22T08:31:42.917Z,45.83
2023-05-22T08:36:44.560Z,44.29
2023-05-22T08:41:47.453Z,43.83
2023-05-22T08:46:51.796Z,43.75
2023-05-22T08:52:00.220Z,43.71
2023-05-22T08:57:02.369Z,41.39
2023-05-22T09:02:06.963Z,41.73
2023-05-22T09:07:09.252Z,40.10
2023-05-22T09:12:11.208Z,39.69
2023-05-22T09:17:15.614Z,36.99
2023-05-22T09:22:17.513Z,38.02
2023-05-22T09:27:23.533Z,37.67
2023-05-22T09:32:25.489Z,37.76
2023-05-22T09:37:28.808Z,36.44
2023-05-22T09:42:30.963Z,37.96
2023-05-22T09:47:34.234Z,36.55
2023-05-22T09:52:37.613Z,35.89
2023-05-22T09:57:43.029Z,36.15
2023-05-22T10:02:51.999Z,35.83
2023-05-22T10:07:57.181Z,36.06
2023-05-22T10:13:06.491Z,34.79
2023-05-22T10:18:08.665Z,34.51
2023-05-22T10:23:11.353Z,34.63
2023-05-22T10:28:23.547Z,34.44
2023-05-22T10:33:34.069Z,34.56
2023-05-22T10:38:59.869Z,35.20
2023-05-22T10:44:04.211Z,33.72
2023-05-22T10:49:06.021Z,34.18
2023-05-22T10:54:07.687Z,33.15
2023-05-22T10:59:09.244Z,33.17
2023-05-22T11:04:12.274Z,32.56
2023-05-22T11:09:17.268Z,32.33
2023-05-22T11:14:20.736Z,33.28
2023-05-22T11:19:23.824Z,32.62
2023-05-22T11:24:25.908Z,33.36
2023-05-22T11:29:29.320Z,33.38
2023-05-22T11:34:34.092Z,32.21
2023-05-22T11:39:35.626Z,32.75
2023-05-22T11:44:39.562Z,31.98
2023-05-22T11:49:44.787Z,32.70
2023-05-22T11:54:47.515Z,33.45
2023-05-22T11:59:49.684Z,33.76
2023-05-22T12:04:58.541Z,32.99
2023-05-22T12:10:01.358Z,32.58
2023-05-22T12:15:06.307Z,33.10
2023-05-22T12:20:13.105Z,31.87
2023-05-22T12:25:17.557Z,31.90
2023-05-22T12:30:26.707Z,31.72
2023-05-22T12:35:29.043Z,31.57
2023-05-22T12:40:30.566Z,31.09
2023-05-22T12:45:32.170Z,31.98
2023-05-22T12:50:33.729Z,32.30
2023-05-22T12:55:36.742Z,32.29
2023-05-22T13:00:42.941Z,31.81
2023-05-22T13:05:45.207Z,31.53
2023-05-22T13:10:46.708Z,32.53
2023-05-22T13:15:48.291Z,32.32
2023-05-22T13:20:49.985Z,32.55
2023-05-22T13:25:51.668Z,32.90
2023-05-22T13:30:54.231Z,33.25
2023-05-22T13:35:55.970Z,32.51
2023-05-22T13:40:58.112Z,33.15
2023-05-22T13:45:59.646Z,33.53
2023-05-22T13:51:01.203Z,33.42
2023-05-22T13:56:02.755Z,33.23
2023-05-22T14:01:04.348Z,33.34
2023-05-22T14:06:06.316Z,33.37
2023-05-22T14:11:07.953Z,33.64
2023-05-22T14:16:09.679Z,33.32
2023-05-22T14:21:11.264Z,33.68
2023-05-22T14:26:14.380Z,33.76
2023-05-22T14:31:17.195Z,33.07
2023-05-22T14:36:18.797Z,32.89
2023-05-22T14:41:21.361Z,32.72
2023-05-22T14:46:22.908Z,32.66
2023-05-22T14:51:24.686Z,32.87
2023-05-22T14:56:28.801Z,32.52
2023-05-22T15:01:30.741Z,32.60
2023-05-22T15:06:32.712Z,32.55
2023-05-22T15:11:34.541Z,32.89
2023-05-22T15:16:36.375Z,32.91
2023-05-22T15:21:38.010Z,33.04
2023-05-22T15:26:42.323Z,33.58
2023-05-22T15:31:43.941Z,33.55
2023-05-22T15:36:45.555Z,33.88
2023-05-22T15:41:58.253Z,34.06
2023-05-22T15:47:07.197Z,33.45
2023-05-22T15:52:08.788Z,34.36
2023-05-22T15:57:10.580Z,34.24
2023-05-22T16:02:12.178Z,34.33
2023-05-22T16:07:13.721Z,34.02
2023-05-22T16:12:15.570Z,34.20
2023-05-22T16:17:17.118Z,34.02
2023-05-22T16:22:19.465Z,34.01
2023-05-22T16:27:21.090Z,34.16
2023-05-22T16:32:24.325Z,33.70
2023-05-22T16:37:26.050Z,33.83
2023-05-22T16:42:27.778Z,33.61
2023-05-22T16:47:30.214Z,34.08
2023-05-22T16:52:31.791Z,34.34
2023-05-22T16:57:33.294Z,34.26
2023-05-22T17:02:35.536Z,34.46
2023-05-22T17:07:37.757Z,34.99
2023-05-22T17:12:39.393Z,35.56
2023-05-22T17:17:41.073Z,35.66
2023-05-22T17:22:42.706Z,36.22
2023-05-22T17:27:44.850Z,37.05
2023-05-22T17:32:46.679Z,37.74
2023-05-22T17:37:48.395Z,38.07
2023-05-22T17:42:50.011Z,38.74
2023-05-22T17:47:51.638Z,39.08
2023-05-22T17:52:53.448Z,39.54
2023-05-22T17:57:55.026Z,39.91
2023-05-22T18:02:56.625Z,39.92
2023-05-22T18:07:58.311Z,39.82
2023-05-22T18:12:59.851Z,40.51
2023-05-22T18:18:03.620Z,41.02
2023-05-22T18:23:05.770Z,41.43
2023-05-22T18:28:08.782Z,41.75
2023-05-22T18:33:12.083Z,42.40
2023-05-22T18:38:13.689Z,42.72
2023-05-22T18:43:15.429Z,43.27
2023-05-22T18:48:16.973Z,43.67
2023-05-22T18:53:18.822Z,44.38
2023-05-22T18:58:20.650Z,44.66
2023-05-22T19:03:22.293Z,45.12
2023-05-22T19:08:26.649Z,45.90
2023-05-22T19:13:29.293Z,46.91
2023-05-22T19:18:31.081Z,46.83
2023-05-22T19:23:33.086Z,47.53
2023-05-22T19:28:34.643Z,47.98
2023-05-22T19:33:36.554Z,48.30
2023-05-22T19:38:38.212Z,48.70
2023-05-22T19:43:39.809Z,49.66
2023-05-22T19:48:41.664Z,49.60
2023-05-22T19:53:44.403Z,50.20
2023-05-22T19:58:45.969Z,51.70
2023-05-22T20:03:47.789Z,51.48
2023-05-22T20:08:49.452Z,51.41
2023-05-22T20:13:54.546Z,52.19
2023-05-22T20:18:56.409Z,53.01
2023-05-22T20:23:58.043Z,52.27
2023-05-22T20:28:59.564Z,52.81
2023-05-22T20:34:02.022Z,53.10
2023-05-22T20:39:03.862Z,53.74
2023-05-22T20:44:06.451Z,53.88
2023-05-22T20:49:08.030Z,54.75
2023-05-22T20:54:09.543Z,56.16
2023-05-22T20:59:11.453Z,59.33
2023-05-22T21:04:13.146Z,59.98
2023-05-22T21:09:14.837Z,56.56
2023-05-22T21:14:17.411Z,56.56
2023-05-22T21:19:19.206Z,57.25
2023-05-22T21:24:21.888Z,57.29
2023-05-22T21:29:23.428Z,58.39
2023-05-22T21:34:24.994Z,58.57
2023-05-22T21:39:26.527Z,57.62
2023-05-22T21:44:28.065Z,57.99
2023-05-22T21:49:29.593Z,58.42
2023-05-22T21:54:31.116Z,59.23
2023-05-22T21:59:32.683Z,59.75
2023-05-22T22:04:34.248Z,59.49
2023-05-22T22:09:35.803Z,59.64
2023-05-22T22:14:37.416Z,59.99
2023-05-22T22:19:41.824Z,60.74
2023-05-22T22:24:43.346Z,61.15
2023-05-22T22:29:44.939Z,60.86
2023-05-22T22:34:47.025Z,60.30
2023-05-22T22:39:48.568Z,61.14
2023-05-22T22:44:50.401Z,60.93
2023-05-22T22:49:52.720Z,60.97
2023-05-22T22:54:54.260Z,61.63
2023-05-22T22:59:57.312Z,61.04
2023-05-22T23:04:59.048Z,61.62
2023-05-22T23:10:00.757Z,61.72
2023-05-22T23:15:03.049Z,61.98
2023-05-22T23:20:05.942Z,61.69
2023-05-22T23:25:07.992Z,63.09
2023-05-22T23:30:10.261Z,62.38
2023-05-22T23:35:11.860Z,62.40
2023-05-22T23:40:13.432Z,62.75
2023-05-22T23:45:14.971Z,63.04
2023-05-22T23:50:16.688Z,62.83
2023-05-22T23:55:18.337Z,63.16
